sensor_id;sensor_type;location;lat;lon;timestamp;P1;durP1;ratioP1;P2;durP2;ratioP2
18090;SDS011;9172;49.948;9.208;2023-05-10T00:00:27;3.23;;;1.40;;
18090;SDS011;9172;49.948;9.208;2023-05-10T00:02:57;7.57;;;1.70;;
18090;SDS011;9172;49.948;9.208;2023-05-10T00:05:26;2.07;;;1.67;;
18090;SDS011;9172;49.948;9.208;2023-05-10T00:07:55;1.80;;;1.40;;
18090;SDS011;9172;49.948;9.208;2023-05-10T00:10:23;1.50;;;1.27;;
18090;SDS011;9172;49.948;9.208;2023-05-10T00:12:52;3.90;;;1.03;;
18090;SDS011;9172;49.948;9.208;2023-05-10T00:15:22;2.13;;;1.40;;
18090;SDS011;9172;49.948;9.208;2023-05-10T00:17:50;1.53;;;1.13;;
18090;SDS011;9172;49.948;9.208;2023-05-10T00:20:20;7.93;;;1.13;;
18090;SDS011;9172;49.948;9.208;2023-05-10T00:22:50;6.70;;;0.83;;
18090;SDS011;9172;49.948;9.208;2023-05-10T00:25:19;1.00;;;0.60;;
18090;SDS011;9172;49.948;9.208;2023-05-10T00:27:48;2.20;;;0.60;;
18090;SDS011;9172;49.948;9.208;2023-05-10T00:30:17;1.93;;;0.80;;
18090;SDS011;9172;49.948;9.208;2023-05-10T00:32:45;2.83;;;0.70;;
18090;SDS011;9172;49.948;9.208;2023-05-10T00:35:16;0.53;;;0.40;;
18090;SDS011;9172;49.948;9.208;2023-05-10T00:37:45;1.03;;;0.70;;
18090;SDS011;9172;49.948;9.208;2023-05-10T00:40:15;0.70;;;0.70;;
18090;SDS011;9172;49.948;9.208;2023-05-10T00:42:44;3.90;;;0.60;;
18090;SDS011;9172;49.948;9.208;2023-05-10T00:45:13;1.30;;;0.67;;
18090;SDS011;9172;49.948;9.208;2023-05-10T00:47:42;1.27;;;0.50;;
18090;SDS011;9172;49.948;9.208;2023-05-10T00:50:10;0.50;;;0.50;;
18090;SDS011;9172;49.948;9.208;2023-05-10T00:52:49;0.70;;;0.60;;
18090;SDS011;9172;49.948;9.208;2023-05-10T00:55:19;0.40;;;0.40;;
18090;SDS011;9172;49.948;9.208;2023-05-10T00:57:49;5.40;;;0.60;;
18090;SDS011;9172;49.948;9.208;2023-05-10T01:00:18;0.40;;;0.40;;
18090;SDS011;9172;49.948;9.208;2023-05-10T01:02:47;0.40;;;0.40;;
18090;SDS011;9172;49.948;9.208;2023-05-10T01:05:16;0.67;;;0.50;;
18090;SDS011;9172;49.948;9.208;2023-05-10T01:07:46;0.50;;;0.50;;
18090;SDS011;9172;49.948;9.208;2023-05-10T01:10:15;0.67;;;0.40;;
18090;SDS011;9172;49.948;9.208;2023-05-10T01:12:45;1.00;;;0.60;;
18090;SDS011;9172;49.948;9.208;2023-05-10T01:15:15;0.57;;;0.50;;
18090;SDS011;9172;49.948;9.208;2023-05-10T01:17:46;1.13;;;0.60;;
18090;SDS011;9172;49.948;9.208;2023-05-10T01:20:15;0.50;;;0.50;;
18090;SDS011;9172;49.948;9.208;2023-05-10T01:22:55;0.70;;;0.60;;
18090;SDS011;9172;49.948;9.208;2023-05-10T01:34:54;0.60;;;0.50;;
18090;SDS011;9172;49.948;9.208;2023-05-10T01:37:28;0.67;;;0.50;;
18090;SDS011;9172;49.948;9.208;2023-05-10T01:40:01;0.60;;;0.60;;
18090;SDS011;9172;49.948;9.208;2023-05-10T01:42:36;0.87;;;0.80;;
18090;SDS011;9172;49.948;9.208;2023-05-10T01:45:11;1.93;;;0.63;;
18090;SDS011;9172;49.948;9.208;2023-05-10T01:47:41;0.73;;;0.70;;
18090;SDS011;9172;49.948;9.208;2023-05-10T01:50:15;0.70;;;0.70;;
18090;SDS011;9172;49.948;9.208;2023-05-10T01:52:44;0.70;;;0.70;;
18090;SDS011;9172;49.948;9.208;2023-05-10T01:55:16;4.53;;;0.83;;
18090;SDS011;9172;49.948;9.208;2023-05-10T01:57:50;1.03;;;0.93;;
18090;SDS011;9172;49.948;9.208;2023-05-10T02:00:20;1.10;;;0.90;;
18090;SDS011;9172;49.948;9.208;2023-05-10T02:02:49;1.20;;;1.00;;
18090;SDS011;9172;49.948;9.208;2023-05-10T02:05:19;1.80;;;1.00;;
18090;SDS011;9172;49.948;9.208;2023-05-10T02:07:52;0.80;;;0.80;;
18090;SDS011;9172;49.948;9.208;2023-05-10T02:10:23;1.60;;;0.90;;
18090;SDS011;9172;49.948;9.208;2023-05-10T02:12:52;1.33;;;0.90;;
18090;SDS011;9172;49.948;9.208;2023-05-10T02:15:22;1.10;;;1.00;;
18090;SDS011;9172;49.948;9.208;2023-05-10T02:17:51;1.30;;;1.10;;
18090;SDS011;9172;49.948;9.208;2023-05-10T02:20:23;1.60;;;1.10;;
18090;SDS011;9172;49.948;9.208;2023-05-10T02:22:54;1.47;;;0.90;;
18090;SDS011;9172;49.948;9.208;2023-05-10T02:25:23;1.10;;;1.00;;
18090;SDS011;9172;49.948;9.208;2023-05-10T02:27:53;1.30;;;1.20;;
18090;SDS011;9172;49.948;9.208;2023-05-10T02:30:23;1.20;;;1.00;;
18090;SDS011;9172;49.948;9.208;2023-05-10T02:32:53;1.17;;;1.07;;
18090;SDS011;9172;49.948;9.208;2023-05-10T02:35:22;1.73;;;1.30;;
18090;SDS011;9172;49.948;9.208;2023-05-10T02:37:52;1.57;;;1.10;;
18090;SDS011;9172;49.948;9.208;2023-05-10T02:40:22;2.97;;;1.00;;
18090;SDS011;9172;49.948;9.208;2023-05-10T02:42:54;2.80;;;1.40;;
18090;SDS011;9172;49.948;9.208;2023-05-10T02:45:25;1.83;;;1.30;;
18090;SDS011;9172;49.948;9.208;2023-05-10T02:47:56;1.53;;;1.03;;
18090;SDS011;9172;49.948;9.208;2023-05-10T02:50:25;1.43;;;1.20;;
18090;SDS011;9172;49.948;9.208;2023-05-10T02:52:59;1.10;;;1.00;;
18090;SDS011;9172;49.948;9.208;2023-05-10T02:55:30;1.73;;;1.03;;
18090;SDS011;9172;49.948;9.208;2023-05-10T02:58:01;2.03;;;1.67;;
18090;SDS011;9172;49.948;9.208;2023-05-10T03:00:30;1.33;;;1.07;;
18090;SDS011;9172;49.948;9.208;2023-05-10T03:02:59;1.40;;;1.20;;
18090;SDS011;9172;49.948;9.208;2023-05-10T03:05:36;1.63;;;1.27;;
18090;SDS011;9172;49.948;9.208;2023-05-10T03:08:04;1.83;;;1.43;;
18090;SDS011;9172;49.948;9.208;2023-05-10T03:13:26;1.20;;;1.10;;
18090;SDS011;9172;49.948;9.208;2023-05-10T03:15:59;2.70;;;1.20;;
18090;SDS011;9172;49.948;9.208;2023-05-10T03:18:39;1.50;;;1.10;;
18090;SDS011;9172;49.948;9.208;2023-05-10T03:21:10;1.20;;;1.10;;
18090;SDS011;9172;49.948;9.208;2023-05-10T03:23:43;1.80;;;1.10;;
18090;SDS011;9172;49.948;9.208;2023-05-10T03:26:15;4.00;;;1.20;;
18090;SDS011;9172;49.948;9.208;2023-05-10T03:28:46;2.70;;;1.30;;
18090;SDS011;9172;49.948;9.208;2023-05-10T03:31:17;5.83;;;1.10;;
18090;SDS011;9172;49.948;9.208;2023-05-10T03:33:48;1.17;;;1.07;;
18090;SDS011;9172;49.948;9.208;2023-05-10T03:36:17;5.70;;;1.43;;
18090;SDS011;9172;49.948;9.208;2023-05-10T03:38:47;1.20;;;1.10;;
18090;SDS011;9172;49.948;9.208;2023-05-10T03:41:15;1.20;;;1.10;;
18090;SDS011;9172;49.948;9.208;2023-05-10T03:43:44;1.20;;;1.10;;
18090;SDS011;9172;49.948;9.208;2023-05-10T03:46:12;1.20;;;1.07;;
18090;SDS011;9172;49.948;9.208;2023-05-10T03:48:41;1.40;;;1.30;;
18090;SDS011;9172;49.948;9.208;2023-05-10T03:51:12;1.33;;;1.00;;
18090;SDS011;9172;49.948;9.208;2023-05-10T03:53:41;1.20;;;0.90;;
18090;SDS011;9172;49.948;9.208;2023-05-10T03:56:09;1.47;;;0.90;;
18090;SDS011;9172;49.948;9.208;2023-05-10T03:58:38;2.83;;;1.10;;
18090;SDS011;9172;49.948;9.208;2023-05-10T04:01:07;3.90;;;1.27;;
18090;SDS011;9172;49.948;9.208;2023-05-10T04:03:37;3.40;;;1.10;;
18090;SDS011;9172;49.948;9.208;2023-05-10T04:06:07;3.20;;;1.20;;
18090;SDS011;9172;49.948;9.208;2023-05-10T04:08:38;1.50;;;0.80;;
18090;SDS011;9172;49.948;9.208;2023-05-10T04:11:08;0.77;;;0.77;;
18090;SDS011;9172;49.948;9.208;2023-05-10T04:13:38;1.10;;;0.80;;
18090;SDS011;9172;49.948;9.208;2023-05-10T04:16:07;7.17;;;1.20;;
18090;SDS011;9172;49.948;9.208;2023-05-10T04:18:36;1.73;;;1.00;;
18090;SDS011;9172;49.948;9.208;2023-05-10T04:21:11;1.10;;;1.00;;
18090;SDS011;9172;49.948;9.208;2023-05-10T04:23:40;1.17;;;0.90;;
18090;SDS011;9172;49.948;9.208;2023-05-10T04:26:08;1.23;;;0.97;;
18090;SDS011;9172;49.948;9.208;2023-05-10T04:28:38;1.10;;;1.00;;
18090;SDS011;9172;49.948;9.208;2023-05-10T04:31:07;2.33;;;0.93;;
18090;SDS011;9172;49.948;9.208;2023-05-10T04:33:36;1.53;;;1.10;;
18090;SDS011;9172;49.948;9.208;2023-05-10T04:36:05;1.27;;;1.17;;
18090;SDS011;9172;49.948;9.208;2023-05-10T04:38:34;1.40;;;1.10;;
18090;SDS011;9172;49.948;9.208;2023-05-10T04:41:06;1.20;;;0.90;;
18090;SDS011;9172;49.948;9.208;2023-05-10T04:43:37;2.00;;;1.23;;
18090;SDS011;9172;49.948;9.208;2023-05-10T04:46:06;1.27;;;1.03;;
18090;SDS011;9172;49.948;9.208;2023-05-10T04:48:36;4.40;;;1.07;;
18090;SDS011;9172;49.948;9.208;2023-05-10T04:51:05;1.00;;;0.77;;
18090;SDS011;9172;49.948;9.208;2023-05-10T04:53:34;1.60;;;1.30;;
18090;SDS011;9172;49.948;9.208;2023-05-10T04:56:04;1.30;;;0.80;;
18090;SDS011;9172;49.948;9.208;2023-05-10T04:58:35;1.53;;;1.00;;
18090;SDS011;9172;49.948;9.208;2023-05-10T05:01:06;2.90;;;1.10;;
18090;SDS011;9172;49.948;9.208;2023-05-10T05:03:36;1.63;;;1.00;;
18090;SDS011;9172;49.948;9.208;2023-05-10T05:06:05;1.60;;;1.20;;
18090;SDS011;9172;49.948;9.208;2023-05-10T05:08:34;3.60;;;0.90;;
18090;SDS011;9172;49.948;9.208;2023-05-10T05:11:04;1.17;;;1.07;;
18090;SDS011;9172;49.948;9.208;2023-05-10T05:13:32;1.30;;;1.20;;
18090;SDS011;9172;49.948;9.208;2023-05-10T05:16:01;2.37;;;1.20;;
18090;SDS011;9172;49.948;9.208;2023-05-10T05:18:31;1.40;;;1.30;;
18090;SDS011;9172;49.948;9.208;2023-05-10T05:20:59;5.90;;;1.47;;
18090;SDS011;9172;49.948;9.208;2023-05-10T05:23:29;1.40;;;1.10;;
18090;SDS011;9172;49.948;9.208;2023-05-10T05:25:59;2.07;;;1.63;;
18090;SDS011;9172;49.948;9.208;2023-05-10T05:28:28;1.97;;;1.03;;
18090;SDS011;9172;49.948;9.208;2023-05-10T05:45:15;6.83;;;1.60;;
18090;SDS011;9172;49.948;9.208;2023-05-10T05:50:26;2.17;;;1.60;;
18090;SDS011;9172;49.948;9.208;2023-05-10T05:52:55;2.10;;;1.50;;
18090;SDS011;9172;49.948;9.208;2023-05-10T05:55:26;4.43;;;1.37;;
18090;SDS011;9172;49.948;9.208;2023-05-10T05:57:55;4.73;;;1.80;;
18090;SDS011;9172;49.948;9.208;2023-05-10T06:00:24;2.07;;;1.53;;
18090;SDS011;9172;49.948;9.208;2023-05-10T06:03:02;1.93;;;1.37;;
18090;SDS011;9172;49.948;9.208;2023-05-10T06:05:33;4.77;;;1.53;;
18090;SDS011;9172;49.948;9.208;2023-05-10T06:08:01;2.07;;;1.70;;
18090;SDS011;9172;49.948;9.208;2023-05-10T06:10:30;2.00;;;1.60;;
18090;SDS011;9172;49.948;9.208;2023-05-10T06:13:00;2.10;;;1.57;;
18090;SDS011;9172;49.948;9.208;2023-05-10T06:15:30;2.27;;;1.60;;
18090;SDS011;9172;49.948;9.208;2023-05-10T06:17:59;4.17;;;1.83;;
18090;SDS011;9172;49.948;9.208;2023-05-10T06:20:28;5.00;;;1.63;;
18090;SDS011;9172;49.948;9.208;2023-05-10T06:22:57;4.10;;;1.90;;
18090;SDS011;9172;49.948;9.208;2023-05-10T06:25:26;3.97;;;2.00;;
18090;SDS011;9172;49.948;9.208;2023-05-10T06:27:54;3.03;;;1.70;;
18090;SDS011;9172;49.948;9.208;2023-05-10T06:30:24;4.87;;;1.80;;
18090;SDS011;9172;49.948;9.208;2023-05-10T06:32:54;3.97;;;1.80;;
18090;SDS011;9172;49.948;9.208;2023-05-10T06:35:23;5.57;;;2.10;;
18090;SDS011;9172;49.948;9.208;2023-05-10T06:37:53;4.30;;;1.93;;
18090;SDS011;9172;49.948;9.208;2023-05-10T06:40:22;4.60;;;2.07;;
18090;SDS011;9172;49.948;9.208;2023-05-10T06:42:52;3.80;;;1.60;;
18090;SDS011;9172;49.948;9.208;2023-05-10T06:45:20;3.13;;;1.90;;
18090;SDS011;9172;49.948;9.208;2023-05-10T06:47:49;2.30;;;1.80;;
18090;SDS011;9172;49.948;9.208;2023-05-10T06:50:19;3.87;;;1.97;;
18090;SDS011;9172;49.948;9.208;2023-05-10T06:52:47;2.33;;;1.67;;
18090;SDS011;9172;49.948;9.208;2023-05-10T06:55:16;2.40;;;1.90;;
18090;SDS011;9172;49.948;9.208;2023-05-10T06:57:45;2.40;;;1.80;;
18090;SDS011;9172;49.948;9.208;2023-05-10T07:00:15;4.33;;;2.00;;
18090;SDS011;9172;49.948;9.208;2023-05-10T07:02:45;4.77;;;2.20;;
18090;SDS011;9172;49.948;9.208;2023-05-10T07:05:14;8.57;;;2.00;;
18090;SDS011;9172;49.948;9.208;2023-05-10T07:07:44;6.37;;;2.40;;
18090;SDS011;9172;49.948;9.208;2023-05-10T07:10:13;7.87;;;2.43;;
18090;SDS011;9172;49.948;9.208;2023-05-10T07:12:42;6.77;;;1.87;;
18090;SDS011;9172;49.948;9.208;2023-05-10T07:15:11;4.07;;;2.20;;
18090;SDS011;9172;49.948;9.208;2023-05-10T07:17:39;3.50;;;2.20;;
18090;SDS011;9172;49.948;9.208;2023-05-10T07:20:08;6.17;;;2.30;;
18090;SDS011;9172;49.948;9.208;2023-05-10T07:22:39;5.10;;;2.00;;
18090;SDS011;9172;49.948;9.208;2023-05-10T07:25:08;5.50;;;2.40;;
18090;SDS011;9172;49.948;9.208;2023-05-10T07:27:38;2.10;;;1.80;;
18090;SDS011;9172;49.948;9.208;2023-05-10T07:30:08;6.57;;;2.20;;
18090;SDS011;9172;49.948;9.208;2023-05-10T07:32:38;3.90;;;1.80;;
18090;SDS011;9172;49.948;9.208;2023-05-10T07:35:08;9.57;;;2.00;;
18090;SDS011;9172;49.948;9.208;2023-05-10T07:37:37;6.17;;;2.30;;
18090;SDS011;9172;49.948;9.208;2023-05-10T07:40:07;5.00;;;2.07;;
18090;SDS011;9172;49.948;9.208;2023-05-10T07:42:37;2.60;;;1.97;;
18090;SDS011;9172;49.948;9.208;2023-05-10T07:45:09;7.80;;;3.10;;
18090;SDS011;9172;49.948;9.208;2023-05-10T07:47:37;3.13;;;2.00;;
18090;SDS011;9172;49.948;9.208;2023-05-10T07:50:07;3.90;;;2.10;;
18090;SDS011;9172;49.948;9.208;2023-05-10T07:52:37;3.27;;;2.30;;
18090;SDS011;9172;49.948;9.208;2023-05-10T07:55:07;6.67;;;2.33;;
18090;SDS011;9172;49.948;9.208;2023-05-10T07:57:37;5.07;;;2.20;;
18090;SDS011;9172;49.948;9.208;2023-05-10T08:00:07;5.37;;;2.27;;
18090;SDS011;9172;49.948;9.208;2023-05-10T08:02:38;11.57;;;2.27;;
18090;SDS011;9172;49.948;9.208;2023-05-10T08:05:08;7.80;;;2.00;;
18090;SDS011;9172;49.948;9.208;2023-05-10T08:07:37;8.03;;;3.00;;
18090;SDS011;9172;49.948;9.208;2023-05-10T08:10:08;3.93;;;2.13;;
18090;SDS011;9172;49.948;9.208;2023-05-10T08:12:37;6.20;;;2.20;;
18090;SDS011;9172;49.948;9.208;2023-05-10T08:15:08;4.77;;;2.00;;
18090;SDS011;9172;49.948;9.208;2023-05-10T08:17:37;5.87;;;2.17;;
18090;SDS011;9172;49.948;9.208;2023-05-10T08:20:07;3.50;;;1.83;;
18090;SDS011;9172;49.948;9.208;2023-05-10T08:22:38;3.93;;;1.83;;
18090;SDS011;9172;49.948;9.208;2023-05-10T08:25:08;7.20;;;2.63;;
18090;SDS011;9172;49.948;9.208;2023-05-10T08:27:37;3.77;;;2.33;;
18090;SDS011;9172;49.948;9.208;2023-05-10T08:30:10;6.90;;;2.20;;
18090;SDS011;9172;49.948;9.208;2023-05-10T08:32:39;14.17;;;2.53;;
18090;SDS011;9172;49.948;9.208;2023-05-10T08:35:10;7.13;;;2.43;;
18090;SDS011;9172;49.948;9.208;2023-05-10T08:37:39;6.67;;;2.43;;
18090;SDS011;9172;49.948;9.208;2023-05-10T08:40:08;4.77;;;2.20;;
18090;SDS011;9172;49.948;9.208;2023-05-10T08:42:40;3.50;;;2.13;;
18090;SDS011;9172;49.948;9.208;2023-05-10T08:45:10;10.30;;;2.50;;
18090;SDS011;9172;49.948;9.208;2023-05-10T08:47:40;3.87;;;2.20;;
18090;SDS011;9172;49.948;9.208;2023-05-10T08:50:10;5.27;;;2.20;;
18090;SDS011;9172;49.948;9.208;2023-05-10T08:52:39;3.17;;;1.90;;
18090;SDS011;9172;49.948;9.208;2023-05-10T08:55:09;3.50;;;2.00;;
18090;SDS011;9172;49.948;9.208;2023-05-10T08:57:38;3.60;;;2.10;;
18090;SDS011;9172;49.948;9.208;2023-05-10T09:00:08;5.37;;;1.77;;
18090;SDS011;9172;49.948;9.208;2023-05-10T09:02:40;2.57;;;1.70;;
18090;SDS011;9172;49.948;9.208;2023-05-10T09:05:10;5.20;;;2.00;;
18090;SDS011;9172;49.948;9.208;2023-05-10T09:07:39;2.57;;;1.83;;
18090;SDS011;9172;49.948;9.208;2023-05-10T09:10:08;2.40;;;1.90;;
18090;SDS011;9172;49.948;9.208;2023-05-10T09:12:39;3.97;;;1.63;;
18090;SDS011;9172;49.948;9.208;2023-05-10T09:15:10;2.63;;;1.80;;
18090;SDS011;9172;49.948;9.208;2023-05-10T09:17:41;5.63;;;2.00;;
18090;SDS011;9172;49.948;9.208;2023-05-10T09:20:11;4.13;;;2.13;;
18090;SDS011;9172;49.948;9.208;2023-05-10T09:22:40;4.37;;;2.00;;
18090;SDS011;9172;49.948;9.208;2023-05-10T09:25:10;3.63;;;1.93;;
18090;SDS011;9172;49.948;9.208;2023-05-10T09:27:41;5.90;;;2.17;;
18090;SDS011;9172;49.948;9.208;2023-05-10T09:30:15;2.70;;;1.70;;
18090;SDS011;9172;49.948;9.208;2023-05-10T09:32:45;2.80;;;1.60;;
18090;SDS011;9172;49.948;9.208;2023-05-10T09:35:15;3.50;;;2.00;;
18090;SDS011;9172;49.948;9.208;2023-05-10T09:37:46;4.90;;;2.30;;
18090;SDS011;9172;49.948;9.208;2023-05-10T09:40:16;2.77;;;1.97;;
18090;SDS011;9172;49.948;9.208;2023-05-10T09:42:51;2.13;;;1.53;;
18090;SDS011;9172;49.948;9.208;2023-05-10T09:45:21;5.27;;;1.83;;
18090;SDS011;9172;49.948;9.208;2023-05-10T09:47:51;3.50;;;1.73;;
18090;SDS011;9172;49.948;9.208;2023-05-10T09:50:20;2.10;;;1.50;;
18090;SDS011;9172;49.948;9.208;2023-05-10T09:52:49;3.33;;;1.80;;
18090;SDS011;9172;49.948;9.208;2023-05-10T09:55:20;6.33;;;1.53;;
18090;SDS011;9172;49.948;9.208;2023-05-10T09:57:59;8.50;;;1.70;;
18090;SDS011;9172;49.948;9.208;2023-05-10T10:00:26;3.50;;;1.60;;
18090;SDS011;9172;49.948;9.208;2023-05-10T10:02:58;2.30;;;1.40;;
18090;SDS011;9172;49.948;9.208;2023-05-10T10:05:30;1.90;;;1.50;;
18090;SDS011;9172;49.948;9.208;2023-05-10T10:07:59;1.27;;;1.17;;
18090;SDS011;9172;49.948;9.208;2023-05-10T10:10:29;4.07;;;1.40;;
18090;SDS011;9172;49.948;9.208;2023-05-10T10:13:01;1.67;;;1.07;;
18090;SDS011;9172;49.948;9.208;2023-05-10T10:15:30;2.00;;;1.20;;
18090;SDS011;9172;49.948;9.208;2023-05-10T10:18:01;2.20;;;1.30;;
18090;SDS011;9172;49.948;9.208;2023-05-10T10:20:30;3.80;;;1.10;;
18090;SDS011;9172;49.948;9.208;2023-05-10T10:23:00;3.13;;;1.50;;
18090;SDS011;9172;49.948;9.208;2023-05-10T10:25:29;3.47;;;1.30;;
18090;SDS011;9172;49.948;9.208;2023-05-10T10:28:02;1.83;;;1.00;;
18090;SDS011;9172;49.948;9.208;2023-05-10T10:30:36;2.27;;;1.40;;
18090;SDS011;9172;49.948;9.208;2023-05-10T10:33:17;3.40;;;1.30;;
18090;SDS011;9172;49.948;9.208;2023-05-10T10:36:12;2.50;;;1.30;;
18090;SDS011;9172;49.948;9.208;2023-05-10T10:38:56;1.93;;;1.27;;
18090;SDS011;9172;49.948;9.208;2023-05-10T10:41:30;3.07;;;1.30;;
18090;SDS011;9172;49.948;9.208;2023-05-10T10:47:02;3.83;;;1.67;;
18090;SDS011;9172;49.948;9.208;2023-05-10T10:50:02;4.70;;;1.70;;
18090;SDS011;9172;49.948;9.208;2023-05-10T10:52:33;3.50;;;1.37;;
18090;SDS011;9172;49.948;9.208;2023-05-10T10:55:03;6.03;;;1.60;;
18090;SDS011;9172;49.948;9.208;2023-05-10T10:57:43;2.90;;;1.80;;
18090;SDS011;9172;49.948;9.208;2023-05-10T11:00:20;2.80;;;1.50;;
18090;SDS011;9172;49.948;9.208;2023-05-10T11:02:52;3.10;;;1.30;;
18090;SDS011;9172;49.948;9.208;2023-05-10T11:08:20;2.67;;;1.00;;
18090;SDS011;9172;49.948;9.208;2023-05-10T11:11:01;1.30;;;0.87;;
18090;SDS011;9172;49.948;9.208;2023-05-10T11:13:33;0.60;;;0.60;;
18090;SDS011;9172;49.948;9.208;2023-05-10T11:16:10;0.73;;;0.70;;
18090;SDS011;9172;49.948;9.208;2023-05-10T11:18:41;2.97;;;1.30;;
18090;SDS011;9172;49.948;9.208;2023-05-10T11:21:21;2.10;;;0.90;;
18090;SDS011;9172;49.948;9.208;2023-05-10T11:23:50;0.97;;;0.90;;
18090;SDS011;9172;49.948;9.208;2023-05-10T11:26:22;2.67;;;0.93;;
18090;SDS011;9172;49.948;9.208;2023-05-10T11:28:53;2.50;;;1.03;;
18090;SDS011;9172;49.948;9.208;2023-05-10T11:31:24;1.23;;;0.93;;
18090;SDS011;9172;49.948;9.208;2023-05-10T11:33:55;0.90;;;0.80;;
18090;SDS011;9172;49.948;9.208;2023-05-10T11:36:25;1.30;;;0.93;;
18090;SDS011;9172;49.948;9.208;2023-05-10T11:38:55;2.40;;;0.80;;
18090;SDS011;9172;49.948;9.208;2023-05-10T11:41:24;2.07;;;1.00;;
18090;SDS011;9172;49.948;9.208;2023-05-10T11:43:56;1.97;;;0.97;;
18090;SDS011;9172;49.948;9.208;2023-05-10T11:46:26;2.60;;;0.90;;
18090;SDS011;9172;49.948;9.208;2023-05-10T11:48:55;2.50;;;0.90;;
18090;SDS011;9172;49.948;9.208;2023-05-10T11:51:28;1.40;;;0.97;;
18090;SDS011;9172;49.948;9.208;2023-05-10T11:53:59;1.60;;;1.00;;
18090;SDS011;9172;49.948;9.208;2023-05-10T11:56:28;1.23;;;0.97;;
18090;SDS011;9172;49.948;9.208;2023-05-10T11:59:00;5.83;;;1.30;;
18090;SDS011;9172;49.948;9.208;2023-05-10T12:01:28;2.70;;;1.20;;
18090;SDS011;9172;49.948;9.208;2023-05-10T12:03:59;2.80;;;1.50;;
18090;SDS011;9172;49.948;9.208;2023-05-10T12:06:29;1.53;;;1.00;;
18090;SDS011;9172;49.948;9.208;2023-05-10T12:09:02;1.53;;;1.23;;
18090;SDS011;9172;49.948;9.208;2023-05-10T12:11:36;1.77;;;1.60;;
18090;SDS011;9172;49.948;9.208;2023-05-10T12:14:06;3.03;;;1.30;;
18090;SDS011;9172;49.948;9.208;2023-05-10T12:16:36;2.20;;;1.53;;
18090;SDS011;9172;49.948;9.208;2023-05-10T12:19:07;1.80;;;1.20;;
18090;SDS011;9172;49.948;9.208;2023-05-10T12:21:35;8.53;;;1.30;;
18090;SDS011;9172;49.948;9.208;2023-05-10T12:24:07;2.50;;;1.17;;
18090;SDS011;9172;49.948;9.208;2023-05-10T12:26:37;3.30;;;1.00;;
18090;SDS011;9172;49.948;9.208;2023-05-10T12:29:13;1.83;;;1.07;;
18090;SDS011;9172;49.948;9.208;2023-05-10T12:31:50;0.97;;;0.90;;
18090;SDS011;9172;49.948;9.208;2023-05-10T12:34:24;2.20;;;0.90;;
18090;SDS011;9172;49.948;9.208;2023-05-10T12:36:53;1.87;;;1.00;;
18090;SDS011;9172;49.948;9.208;2023-05-10T12:39:22;1.50;;;0.80;;
18090;SDS011;9172;49.948;9.208;2023-05-10T12:41:51;9.10;;;0.93;;
18090;SDS011;9172;49.948;9.208;2023-05-10T12:44:20;3.03;;;1.00;;
18090;SDS011;9172;49.948;9.208;2023-05-10T12:46:49;1.20;;;0.83;;
18090;SDS011;9172;49.948;9.208;2023-05-10T12:49:20;2.07;;;0.90;;
18090;SDS011;9172;49.948;9.208;2023-05-10T12:51:48;1.17;;;0.80;;
18090;SDS011;9172;49.948;9.208;2023-05-10T12:54:18;1.97;;;1.07;;
18090;SDS011;9172;49.948;9.208;2023-05-10T12:56:47;3.40;;;0.90;;
18090;SDS011;9172;49.948;9.208;2023-05-10T12:59:18;1.57;;;1.03;;
18090;SDS011;9172;49.948;9.208;2023-05-10T13:01:46;2.33;;;0.97;;
18090;SDS011;9172;49.948;9.208;2023-05-10T13:04:16;1.10;;;1.00;;
18090;SDS011;9172;49.948;9.208;2023-05-10T13:06:47;0.80;;;0.80;;
18090;SDS011;9172;49.948;9.208;2023-05-10T13:09:17;1.00;;;0.90;;
18090;SDS011;9172;49.948;9.208;2023-05-10T13:11:47;1.07;;;0.73;;
18090;SDS011;9172;49.948;9.208;2023-05-10T13:14:17;0.70;;;0.70;;
18090;SDS011;9172;49.948;9.208;2023-05-10T13:16:46;0.70;;;0.70;;
18090;SDS011;9172;49.948;9.208;2023-05-10T13:19:15;1.80;;;0.70;;
18090;SDS011;9172;49.948;9.208;2023-05-10T13:21:45;1.37;;;0.83;;
18090;SDS011;9172;49.948;9.208;2023-05-10T13:24:14;3.63;;;0.90;;
18090;SDS011;9172;49.948;9.208;2023-05-10T13:26:43;4.10;;;0.83;;
18090;SDS011;9172;49.948;9.208;2023-05-10T13:29:13;2.20;;;0.90;;
18090;SDS011;9172;49.948;9.208;2023-05-10T13:31:43;2.33;;;1.00;;
18090;SDS011;9172;49.948;9.208;2023-05-10T13:34:12;2.50;;;0.90;;
18090;SDS011;9172;49.948;9.208;2023-05-10T13:36:41;1.00;;;0.90;;
18090;SDS011;9172;49.948;9.208;2023-05-10T13:39:11;1.73;;;1.13;;
18090;SDS011;9172;49.948;9.208;2023-05-10T13:41:40;1.73;;;0.93;;
18090;SDS011;9172;49.948;9.208;2023-05-10T13:44:11;1.20;;;0.90;;
18090;SDS011;9172;49.948;9.208;2023-05-10T13:46:40;1.10;;;0.80;;
18090;SDS011;9172;49.948;9.208;2023-05-10T13:49:09;0.90;;;0.80;;
18090;SDS011;9172;49.948;9.208;2023-05-10T13:51:40;1.27;;;0.70;;
18090;SDS011;9172;49.948;9.208;2023-05-10T13:54:10;1.30;;;0.80;;
18090;SDS011;9172;49.948;9.208;2023-05-10T13:56:39;1.13;;;0.87;;
18090;SDS011;9172;49.948;9.208;2023-05-10T13:59:10;2.13;;;1.00;;
18090;SDS011;9172;49.948;9.208;2023-05-10T14:01:40;1.13;;;0.77;;
18090;SDS011;9172;49.948;9.208;2023-05-10T14:04:10;1.50;;;0.80;;
18090;SDS011;9172;49.948;9.208;2023-05-10T14:06:39;3.30;;;0.90;;
18090;SDS011;9172;49.948;9.208;2023-05-10T14:09:07;2.77;;;0.90;;
18090;SDS011;9172;49.948;9.208;2023-05-10T14:11:36;1.63;;;1.07;;
18090;SDS011;9172;49.948;9.208;2023-05-10T14:14:07;2.30;;;0.97;;
18090;SDS011;9172;49.948;9.208;2023-05-10T14:16:37;2.37;;;1.07;;
18090;SDS011;9172;49.948;9.208;2023-05-10T14:19:06;1.77;;;0.80;;
18090;SDS011;9172;49.948;9.208;2023-05-10T14:21:36;3.83;;;0.83;;
18090;SDS011;9172;49.948;9.208;2023-05-10T14:24:05;3.17;;;1.10;;
18090;SDS011;9172;49.948;9.208;2023-05-10T14:26:33;1.63;;;0.97;;
18090;SDS011;9172;49.948;9.208;2023-05-10T14:29:03;1.23;;;0.97;;
18090;SDS011;9172;49.948;9.208;2023-05-10T14:31:31;1.63;;;0.90;;
18090;SDS011;9172;49.948;9.208;2023-05-10T14:34:00;1.17;;;0.80;;
18090;SDS011;9172;49.948;9.208;2023-05-10T14:36:29;2.27;;;0.90;;
18090;SDS011;9172;49.948;9.208;2023-05-10T14:38:58;2.03;;;0.87;;
18090;SDS011;9172;49.948;9.208;2023-05-10T14:41:26;1.23;;;0.60;;
18090;SDS011;9172;49.948;9.208;2023-05-10T14:43:56;1.83;;;0.80;;
18090;SDS011;9172;49.948;9.208;2023-05-10T14:46:25;1.30;;;0.80;;
18090;SDS011;9172;49.948;9.208;2023-05-10T14:48:56;2.90;;;0.70;;
18090;SDS011;9172;49.948;9.208;2023-05-10T14:51:24;0.63;;;0.60;;
18090;SDS011;9172;49.948;9.208;2023-05-10T14:53:54;1.43;;;0.80;;
18090;SDS011;9172;49.948;9.208;2023-05-10T14:56:24;2.90;;;1.03;;
18090;SDS011;9172;49.948;9.208;2023-05-10T14:58:53;3.63;;;0.80;;
18090;SDS011;9172;49.948;9.208;2023-05-10T15:01:23;3.43;;;1.00;;
18090;SDS011;9172;49.948;9.208;2023-05-10T15:03:54;9.47;;;1.50;;
18090;SDS011;9172;49.948;9.208;2023-05-10T15:06:23;3.07;;;0.90;;
18090;SDS011;9172;49.948;9.208;2023-05-10T15:08:58;2.43;;;1.20;;
18090;SDS011;9172;49.948;9.208;2023-05-10T15:11:27;2.23;;;1.10;;
18090;SDS011;9172;49.948;9.208;2023-05-10T15:13:56;1.57;;;1.07;;
18090;SDS011;9172;49.948;9.208;2023-05-10T15:16:24;3.43;;;1.00;;
18090;SDS011;9172;49.948;9.208;2023-05-10T15:18:53;2.60;;;1.10;;
18090;SDS011;9172;49.948;9.208;2023-05-10T15:21:22;4.23;;;1.10;;
18090;SDS011;9172;49.948;9.208;2023-05-10T15:23:51;1.30;;;0.77;;
18090;SDS011;9172;49.948;9.208;2023-05-10T15:26:22;2.83;;;1.00;;
18090;SDS011;9172;49.948;9.208;2023-05-10T15:28:52;4.43;;;0.97;;
18090;SDS011;9172;49.948;9.208;2023-05-10T15:31:21;1.53;;;0.90;;
18090;SDS011;9172;49.948;9.208;2023-05-10T15:33:50;5.20;;;1.00;;
18090;SDS011;9172;49.948;9.208;2023-05-10T15:36:21;3.27;;;1.00;;
18090;SDS011;9172;49.948;9.208;2023-05-10T15:38:51;4.73;;;0.80;;
18090;SDS011;9172;49.948;9.208;2023-05-10T15:41:20;2.53;;;0.80;;
18090;SDS011;9172;49.948;9.208;2023-05-10T15:43:49;2.00;;;1.10;;
18090;SDS011;9172;49.948;9.208;2023-05-10T15:46:18;4.03;;;0.97;;
18090;SDS011;9172;49.948;9.208;2023-05-10T15:48:46;1.77;;;1.00;;
18090;SDS011;9172;49.948;9.208;2023-05-10T15:51:16;4.37;;;0.80;;
18090;SDS011;9172;49.948;9.208;2023-05-10T15:53:45;2.90;;;1.10;;